sensor_id;sensor_type;location;lat;lon;timestamp;P1;durP1;ratioP1;P2;durP2;ratioP2
10947;SDS011;5526;42.070;24.752;2022-07-10T00:01:46;2.75;;;2.65;;
10947;SDS011;5526;42.070;24.752;2022-07-10T00:04:13;2.88;;;2.70;;
10947;SDS011;5526;42.070;24.752;2022-07-10T00:06:40;3.25;;;3.00;;
10947;SDS011;5526;42.070;24.752;2022-07-10T00:09:08;2.80;;;2.60;;
10947;SDS011;5526;42.070;24.752;2022-07-10T00:11:35;3.13;;;2.83;;
10947;SDS011;5526;42.070;24.752;2022-07-10T00:14:01;3.28;;;3.08;;
10947;SDS011;5526;42.070;24.752;2022-07-10T00:16:29;3.30;;;3.10;;
10947;SDS011;5526;42.070;24.752;2022-07-10T00:18:57;3.00;;;2.80;;
10947;SDS011;5526;42.070;24.752;2022-07-10T00:21:24;3.30;;;3.10;;
10947;SDS011;5526;42.070;24.752;2022-07-10T00:23:51;3.30;;;3.10;;
10947;SDS011;5526;42.070;24.752;2022-07-10T00:26:18;3.33;;;3.05;;
10947;SDS011;5526;42.070;24.752;2022-07-10T00:28:45;3.00;;;2.80;;
10947;SDS011;5526;42.070;24.752;2022-07-10T00:31:12;3.30;;;3.10;;
10947;SDS011;5526;42.070;24.752;2022-07-10T00:33:39;5.38;;;3.05;;
10947;SDS011;5526;42.070;24.752;2022-07-10T00:36:08;3.40;;;3.20;;
10947;SDS011;5526;42.070;24.752;2022-07-10T00:38:35;3.08;;;2.90;;
10947;SDS011;5526;42.070;24.752;2022-07-10T00:41:02;3.38;;;3.13;;
10947;SDS011;5526;42.070;24.752;2022-07-10T00:43:29;3.20;;;3.00;;
10947;SDS011;5526;42.070;24.752;2022-07-10T00:45:56;3.60;;;3.40;;
10947;SDS011;5526;42.070;24.752;2022-07-10T00:48:23;3.38;;;3.10;;
10947;SDS011;5526;42.070;24.752;2022-07-10T00:50:50;3.30;;;2.83;;
10947;SDS011;5526;42.070;24.752;2022-07-10T00:53:19;3.38;;;3.17;;
10947;SDS011;5526;42.070;24.752;2022-07-10T00:55:46;3.17;;;2.97;;
10947;SDS011;5526;42.070;24.752;2022-07-10T00:58:13;3.20;;;3.00;;
10947;SDS011;5526;42.070;24.752;2022-07-10T01:00:40;4.15;;;3.00;;
10947;SDS011;5526;42.070;24.752;2022-07-10T01:03:08;3.17;;;2.92;;
10947;SDS011;5526;42.070;24.752;2022-07-10T01:05:35;3.22;;;3.05;;
10947;SDS011;5526;42.070;24.752;2022-07-10T01:08:03;3.40;;;3.10;;
10947;SDS011;5526;42.070;24.752;2022-07-10T01:10:32;3.80;;;3.10;;
10947;SDS011;5526;42.070;24.752;2022-07-10T01:12:59;3.05;;;2.85;;
10947;SDS011;5526;42.070;24.752;2022-07-10T01:15:27;3.33;;;3.13;;
10947;SDS011;5526;42.070;24.752;2022-07-10T01:17:54;3.28;;;3.08;;
10947;SDS011;5526;42.070;24.752;2022-07-10T01:20:29;2.90;;;2.70;;
10947;SDS011;5526;42.070;24.752;2022-07-10T01:22:58;3.08;;;2.88;;
10947;SDS011;5526;42.070;24.752;2022-07-10T01:25:25;2.95;;;2.75;;
10947;SDS011;5526;42.070;24.752;2022-07-10T01:27:52;3.00;;;2.90;;
10947;SDS011;5526;42.070;24.752;2022-07-10T01:30:19;3.00;;;2.83;;
10947;SDS011;5526;42.070;24.752;2022-07-10T01:32:46;3.17;;;2.97;;
10947;SDS011;5526;42.070;24.752;2022-07-10T01:35:14;3.30;;;3.00;;
10947;SDS011;5526;42.070;24.752;2022-07-10T01:37:41;2.60;;;2.50;;
10947;SDS011;5526;42.070;24.752;2022-07-10T01:40:10;2.67;;;2.58;;
10947;SDS011;5526;42.070;24.752;2022-07-10T01:42:38;3.35;;;2.88;;
10947;SDS011;5526;42.070;24.752;2022-07-10T01:45:06;2.97;;;2.78;;
10947;SDS011;5526;42.070;24.752;2022-07-10T01:47:34;3.30;;;3.10;;
10947;SDS011;5526;42.070;24.752;2022-07-10T01:50:02;3.22;;;3.03;;
10947;SDS011;5526;42.070;24.752;2022-07-10T01:52:30;3.78;;;3.00;;
10947;SDS011;5526;42.070;24.752;2022-07-10T01:54:57;3.67;;;2.97;;
10947;SDS011;5526;42.070;24.752;2022-07-10T01:57:25;3.22;;;3.03;;
10947;SDS011;5526;42.070;24.752;2022-07-10T01:59:52;2.70;;;2.60;;
10947;SDS011;5526;42.070;24.752;2022-07-10T02:02:19;3.30;;;3.10;;
10947;SDS011;5526;42.070;24.752;2022-07-10T02:04:46;3.00;;;2.80;;
10947;SDS011;5526;42.070;24.752;2022-07-10T02:07:12;3.08;;;2.78;;
10947;SDS011;5526;42.070;24.752;2022-07-10T02:09:42;2.92;;;2.72;;
10947;SDS011;5526;42.070;24.752;2022-07-10T02:12:10;2.95;;;2.72;;
10947;SDS011;5526;42.070;24.752;2022-07-10T02:14:39;3.38;;;3.17;;
10947;SDS011;5526;42.070;24.752;2022-07-10T02:17:07;3.00;;;2.90;;
10947;SDS011;5526;42.070;24.752;2022-07-10T02:19:34;3.40;;;3.20;;
10947;SDS011;5526;42.070;24.752;2022-07-10T02:22:01;3.13;;;2.95;;
10947;SDS011;5526;42.070;24.752;2022-07-10T02:24:29;3.17;;;2.97;;
10947;SDS011;5526;42.070;24.752;2022-07-10T02:26:56;3.30;;;3.10;;
10947;SDS011;5526;42.070;24.752;2022-07-10T02:29:23;3.40;;;3.10;;
10947;SDS011;5526;42.070;24.752;2022-07-10T02:31:51;2.85;;;2.65;;
10947;SDS011;5526;42.070;24.752;2022-07-10T02:34:18;2.80;;;2.60;;
10947;SDS011;5526;42.070;24.752;2022-07-10T02:36:45;3.17;;;2.97;;
10947;SDS011;5526;42.070;24.752;2022-07-10T02:39:12;3.42;;;3.15;;
10947;SDS011;5526;42.070;24.752;2022-07-10T02:41:39;3.08;;;2.88;;
10947;SDS011;5526;42.070;24.752;2022-07-10T02:44:06;3.50;;;3.20;;
10947;SDS011;5526;42.070;24.752;2022-07-10T02:46:33;3.30;;;3.00;;
10947;SDS011;5526;42.070;24.752;2022-07-10T02:49:01;3.28;;;3.08;;
10947;SDS011;5526;42.070;24.752;2022-07-10T02:51:30;3.35;;;3.05;;
10947;SDS011;5526;42.070;24.752;2022-07-10T02:53:57;3.15;;;2.95;;
10947;SDS011;5526;42.070;24.752;2022-07-10T02:56:24;3.58;;;3.17;;
10947;SDS011;5526;42.070;24.752;2022-07-10T02:58:51;3.60;;;3.40;;
10947;SDS011;5526;42.070;24.752;2022-07-10T03:01:18;3.72;;;3.40;;
10947;SDS011;5526;42.070;24.752;2022-07-10T03:03:45;3.88;;;3.42;;
10947;SDS011;5526;42.070;24.752;2022-07-10T03:06:13;4.00;;;3.50;;
10947;SDS011;5526;42.070;24.752;2022-07-10T03:08:40;3.90;;;3.60;;
10947;SDS011;5526;42.070;24.752;2022-07-10T03:11:07;4.13;;;3.83;;
10947;SDS011;5526;42.070;24.752;2022-07-10T03:13:34;3.70;;;3.50;;
10947;SDS011;5526;42.070;24.752;2022-07-10T03:16:01;3.85;;;3.65;;
10947;SDS011;5526;42.070;24.752;2022-07-10T03:18:29;4.00;;;3.70;;
10947;SDS011;5526;42.070;24.752;2022-07-10T03:20:56;4.05;;;3.75;;
10947;SDS011;5526;42.070;24.752;2022-07-10T03:23:24;3.72;;;3.53;;
10947;SDS011;5526;42.070;24.752;2022-07-10T03:25:52;3.90;;;3.60;;
10947;SDS011;5526;42.070;24.752;2022-07-10T03:28:19;3.75;;;3.50;;
10947;SDS011;5526;42.070;24.752;2022-07-10T03:30:46;3.95;;;3.63;;
10947;SDS011;5526;42.070;24.752;2022-07-10T03:33:13;4.22;;;3.92;;
10947;SDS011;5526;42.070;24.752;2022-07-10T03:35:40;4.47;;;3.63;;
10947;SDS011;5526;42.070;24.752;2022-07-10T03:38:07;3.67;;;3.47;;
10947;SDS011;5526;42.070;24.752;2022-07-10T03:40:35;4.05;;;3.80;;
10947;SDS011;5526;42.070;24.752;2022-07-10T03:43:02;3.55;;;3.30;;
10947;SDS011;5526;42.070;24.752;2022-07-10T03:45:29;3.78;;;3.58;;
10947;SDS011;5526;42.070;24.752;2022-07-10T03:47:56;3.75;;;3.53;;
10947;SDS011;5526;42.070;24.752;2022-07-10T03:50:23;4.57;;;4.10;;
10947;SDS011;5526;42.070;24.752;2022-07-10T03:52:50;4.20;;;3.90;;
10947;SDS011;5526;42.070;24.752;2022-07-10T03:55:17;3.70;;;3.40;;
10947;SDS011;5526;42.070;24.752;2022-07-10T03:57:45;4.03;;;3.72;;
10947;SDS011;5526;42.070;24.752;2022-07-10T04:00:22;3.22;;;3.03;;
10947;SDS011;5526;42.070;24.752;2022-07-10T04:02:56;3.70;;;3.40;;
10947;SDS011;5526;42.070;24.752;2022-07-10T04:05:24;4.10;;;3.90;;
10947;SDS011;5526;42.070;24.752;2022-07-10T04:07:51;4.00;;;3.58;;
10947;SDS011;5526;42.070;24.752;2022-07-10T04:10:18;4.05;;;3.63;;
10947;SDS011;5526;42.070;24.752;2022-07-10T04:12:47;4.28;;;3.97;;
10947;SDS011;5526;42.070;24.752;2022-07-10T04:15:14;3.60;;;3.40;;
10947;SDS011;5526;42.070;24.752;2022-07-10T04:17:41;4.00;;;3.70;;
10947;SDS011;5526;42.070;24.752;2022-07-10T04:20:09;4.55;;;4.25;;
10947;SDS011;5526;42.070;24.752;2022-07-10T04:22:37;3.88;;;3.65;;
10947;SDS011;5526;42.070;24.752;2022-07-10T04:25:04;3.85;;;3.65;;
10947;SDS011;5526;42.070;24.752;2022-07-10T04:27:32;4.10;;;3.80;;
10947;SDS011;5526;42.070;24.752;2022-07-10T04:30:00;3.83;;;3.63;;
10947;SDS011;5526;42.070;24.752;2022-07-10T04:32:28;4.60;;;4.20;;
10947;SDS011;5526;42.070;24.752;2022-07-10T04:34:54;4.03;;;3.72;;
10947;SDS011;5526;42.070;24.752;2022-07-10T04:37:22;4.20;;;4.00;;
10947;SDS011;5526;42.070;24.752;2022-07-10T04:39:49;4.05;;;3.85;;
10947;SDS011;5526;42.070;24.752;2022-07-10T04:42:16;4.22;;;3.92;;
10947;SDS011;5526;42.070;24.752;2022-07-10T04:44:43;4.07;;;3.83;;
10947;SDS011;5526;42.070;24.752;2022-07-10T04:47:11;4.07;;;3.78;;
10947;SDS011;5526;42.070;24.752;2022-07-10T04:49:38;4.32;;;4.03;;
10947;SDS011;5526;42.070;24.752;2022-07-10T04:52:06;4.10;;;3.90;;
10947;SDS011;5526;42.070;24.752;2022-07-10T04:54:33;4.22;;;3.92;;
10947;SDS011;5526;42.070;24.752;2022-07-10T04:57:00;4.30;;;3.92;;
10947;SDS011;5526;42.070;24.752;2022-07-10T04:59:27;4.20;;;3.80;;
10947;SDS011;5526;42.070;24.752;2022-07-10T05:01:54;4.82;;;4.53;;
10947;SDS011;5526;42.070;24.752;2022-07-10T05:04:22;4.55;;;4.25;;
10947;SDS011;5526;42.070;24.752;2022-07-10T05:06:49;4.05;;;3.85;;
10947;SDS011;5526;42.070;24.752;2022-07-10T05:09:16;3.97;;;3.67;;
10947;SDS011;5526;42.070;24.752;2022-07-10T05:11:45;4.38;;;4.10;;
10947;SDS011;5526;42.070;24.752;2022-07-10T05:14:12;4.15;;;3.90;;
10947;SDS011;5526;42.070;24.752;2022-07-10T05:16:39;3.85;;;3.65;;
10947;SDS011;5526;42.070;24.752;2022-07-10T05:19:06;4.07;;;3.78;;
10947;SDS011;5526;42.070;24.752;2022-07-10T05:21:34;4.20;;;3.88;;
10947;SDS011;5526;42.070;24.752;2022-07-10T05:24:01;3.92;;;3.70;;
10947;SDS011;5526;42.070;24.752;2022-07-10T05:26:28;4.07;;;3.78;;
10947;SDS011;5526;42.070;24.752;2022-07-10T05:28:55;4.32;;;4.00;;
10947;SDS011;5526;42.070;24.752;2022-07-10T05:31:22;4.13;;;3.83;;
10947;SDS011;5526;42.070;24.752;2022-07-10T05:33:49;3.92;;;3.70;;
10947;SDS011;5526;42.070;24.752;2022-07-10T05:36:16;4.30;;;4.00;;
10947;SDS011;5526;42.070;24.752;2022-07-10T05:38:44;4.25;;;3.95;;
10947;SDS011;5526;42.070;24.752;2022-07-10T05:41:12;3.55;;;3.35;;
10947;SDS011;5526;42.070;24.752;2022-07-10T05:43:39;3.92;;;3.70;;
10947;SDS011;5526;42.070;24.752;2022-07-10T05:46:06;3.92;;;3.72;;
10947;SDS011;5526;42.070;24.752;2022-07-10T05:48:33;4.05;;;3.78;;
10947;SDS011;5526;42.070;24.752;2022-07-10T05:51:03;4.45;;;4.05;;
10947;SDS011;5526;42.070;24.752;2022-07-10T05:53:31;4.22;;;3.92;;
10947;SDS011;5526;42.070;24.752;2022-07-10T05:56:00;3.72;;;3.53;;
10947;SDS011;5526;42.070;24.752;2022-07-10T05:58:28;4.15;;;3.95;;
10947;SDS011;5526;42.070;24.752;2022-07-10T06:00:55;4.18;;;3.90;;
10947;SDS011;5526;42.070;24.752;2022-07-10T06:03:22;4.13;;;3.92;;
10947;SDS011;5526;42.070;24.752;2022-07-10T06:05:49;4.30;;;3.97;;
10947;SDS011;5526;42.070;24.752;2022-07-10T06:08:16;3.97;;;3.78;;
10947;SDS011;5526;42.070;24.752;2022-07-10T06:10:44;4.30;;;3.97;;
10947;SDS011;5526;42.070;24.752;2022-07-10T06:13:12;4.20;;;3.97;;
10947;SDS011;5526;42.070;24.752;2022-07-10T06:15:40;3.80;;;3.60;;
10947;SDS011;5526;42.070;24.752;2022-07-10T06:18:07;4.13;;;3.80;;
10947;SDS011;5526;42.070;24.752;2022-07-10T06:20:34;3.97;;;3.72;;
10947;SDS011;5526;42.070;24.752;2022-07-10T06:23:01;4.00;;;3.80;;
10947;SDS011;5526;42.070;24.752;2022-07-10T06:25:28;3.85;;;3.60;;
10947;SDS011;5526;42.070;24.752;2022-07-10T06:27:55;3.70;;;3.47;;
10947;SDS011;5526;42.070;24.752;2022-07-10T06:30:23;4.07;;;3.80;;
10947;SDS011;5526;42.070;24.752;2022-07-10T06:32:50;4.03;;;3.83;;
10947;SDS011;5526;42.070;24.752;2022-07-10T06:35:17;4.50;;;4.20;;
10947;SDS011;5526;42.070;24.752;2022-07-10T06:37:44;3.78;;;3.58;;
10947;SDS011;5526;42.070;24.752;2022-07-10T06:40:11;4.15;;;3.85;;
10947;SDS011;5526;42.070;24.752;2022-07-10T06:42:40;4.20;;;3.90;;
10947;SDS011;5526;42.070;24.752;2022-07-10T06:45:07;3.88;;;3.60;;
10947;SDS011;5526;42.070;24.752;2022-07-10T06:47:36;4.47;;;4.10;;
10947;SDS011;5526;42.070;24.752;2022-07-10T06:50:21;3.80;;;3.60;;
10947;SDS011;5526;42.070;24.752;2022-07-10T06:52:48;4.10;;;3.90;;
10947;SDS011;5526;42.070;24.752;2022-07-10T06:55:17;6.00;;;4.28;;
10947;SDS011;5526;42.070;24.752;2022-07-10T06:57:45;4.18;;;3.88;;
10947;SDS011;5526;42.070;24.752;2022-07-10T07:00:12;4.47;;;4.07;;
10947;SDS011;5526;42.070;24.752;2022-07-10T07:02:42;4.03;;;3.72;;
10947;SDS011;5526;42.070;24.752;2022-07-10T07:05:09;4.13;;;3.92;;
10947;SDS011;5526;42.070;24.752;2022-07-10T07:07:36;4.35;;;4.15;;
10947;SDS011;5526;42.070;24.752;2022-07-10T07:10:04;4.53;;;4.22;;
10947;SDS011;5526;42.070;24.752;2022-07-10T07:12:33;4.45;;;4.15;;
10947;SDS011;5526;42.070;24.752;2022-07-10T07:15:00;4.75;;;4.53;;
10947;SDS011;5526;42.070;24.752;2022-07-10T07:17:27;4.57;;;4.10;;
10947;SDS011;5526;42.070;24.752;2022-07-10T07:20:01;5.07;;;4.78;;
10947;SDS011;5526;42.070;24.752;2022-07-10T07:22:46;4.93;;;4.63;;
10947;SDS011;5526;42.070;24.752;2022-07-10T07:25:30;4.70;;;4.38;;
10947;SDS011;5526;42.070;24.752;2022-07-10T07:27:57;5.03;;;4.72;;
10947;SDS011;5526;42.070;24.752;2022-07-10T07:30:24;5.18;;;4.75;;
10947;SDS011;5526;42.070;24.752;2022-07-10T07:32:51;5.30;;;4.85;;
10947;SDS011;5526;42.070;24.752;2022-07-10T07:35:20;4.93;;;4.63;;
10947;SDS011;5526;42.070;24.752;2022-07-10T07:37:47;4.82;;;4.43;;
10947;SDS011;5526;42.070;24.752;2022-07-10T07:40:16;4.55;;;4.15;;
10947;SDS011;5526;42.070;24.752;2022-07-10T07:42:46;4.43;;;4.13;;
10947;SDS011;5526;42.070;24.752;2022-07-10T07:45:13;4.70;;;4.30;;
10947;SDS011;5526;42.070;24.752;2022-07-10T07:47:44;4.40;;;4.20;;
10947;SDS011;5526;42.070;24.752;2022-07-10T07:50:13;4.47;;;4.15;;
10947;SDS011;5526;42.070;24.752;2022-07-10T07:52:42;5.20;;;4.78;;
10947;SDS011;5526;42.070;24.752;2022-07-10T07:55:09;4.43;;;4.13;;
10947;SDS011;5526;42.070;24.752;2022-07-10T07:57:36;4.40;;;4.10;;
10947;SDS011;5526;42.070;24.752;2022-07-10T08:00:05;4.75;;;4.47;;
10947;SDS011;5526;42.070;24.752;2022-07-10T08:02:33;4.97;;;4.68;;
10947;SDS011;5526;42.070;24.752;2022-07-10T08:05:00;4.88;;;4.60;;
10947;SDS011;5526;42.070;24.752;2022-07-10T08:07:33;5.00;;;4.60;;
10947;SDS011;5526;42.070;24.752;2022-07-10T08:10:03;5.32;;;4.93;;
10947;SDS011;5526;42.070;24.752;2022-07-10T08:12:31;5.20;;;4.90;;
10947;SDS011;5526;42.070;24.752;2022-07-10T08:14:58;5.75;;;5.25;;
10947;SDS011;5526;42.070;24.752;2022-07-10T08:17:25;5.55;;;5.25;;
10947;SDS011;5526;42.070;24.752;2022-07-10T08:19:52;5.40;;;5.10;;
10947;SDS011;5526;42.070;24.752;2022-07-10T08:22:20;5.43;;;5.13;;
10947;SDS011;5526;42.070;24.752;2022-07-10T08:24:47;5.13;;;4.82;;
10947;SDS011;5526;42.070;24.752;2022-07-10T08:27:15;5.43;;;4.93;;
10947;SDS011;5526;42.070;24.752;2022-07-10T08:29:42;5.40;;;4.90;;
10947;SDS011;5526;42.070;24.752;2022-07-10T08:32:09;6.10;;;5.50;;
10947;SDS011;5526;42.070;24.752;2022-07-10T08:34:36;5.20;;;4.90;;
10947;SDS011;5526;42.070;24.752;2022-07-10T08:37:03;6.03;;;5.60;;
10947;SDS011;5526;42.070;24.752;2022-07-10T08:39:30;5.97;;;5.57;;
10947;SDS011;5526;42.070;24.752;2022-07-10T08:41:58;5.78;;;5.38;;
10947;SDS011;5526;42.070;24.752;2022-07-10T08:44:27;5.38;;;4.97;;
10947;SDS011;5526;42.070;24.752;2022-07-10T08:46:55;5.32;;;5.03;;
10947;SDS011;5526;42.070;24.752;2022-07-10T08:49:23;5.80;;;5.50;;
10947;SDS011;5526;42.070;24.752;2022-07-10T08:51:57;5.22;;;4.93;;
10947;SDS011;5526;42.070;24.752;2022-07-10T08:54:29;5.88;;;5.55;;
10947;SDS011;5526;42.070;24.752;2022-07-10T08:56:57;5.72;;;5.32;;
10947;SDS011;5526;42.070;24.752;2022-07-10T08:59:27;5.60;;;5.20;;
10947;SDS011;5526;42.070;24.752;2022-07-10T09:01:56;6.05;;;5.57;;
10947;SDS011;5526;42.070;24.752;2022-07-10T09:04:24;5.55;;;5.25;;
10947;SDS011;5526;42.070;24.752;2022-07-10T09:06:53;5.22;;;4.93;;
10947;SDS011;5526;42.070;24.752;2022-07-10T09:09:21;5.50;;;5.10;;
10947;SDS011;5526;42.070;24.752;2022-07-10T09:11:54;5.18;;;4.88;;
10947;SDS011;5526;42.070;24.752;2022-07-10T09:14:22;5.47;;;5.07;;
10947;SDS011;5526;42.070;24.752;2022-07-10T09:16:54;5.45;;;5.05;;
10947;SDS011;5526;42.070;24.752;2022-07-10T09:19:21;5.78;;;5.43;;
10947;SDS011;5526;42.070;24.752;2022-07-10T09:21:50;5.30;;;5.00;;
10947;SDS011;5526;42.070;24.752;2022-07-10T09:24:19;5.47;;;5.07;;
10947;SDS011;5526;42.070;24.752;2022-07-10T09:26:58;6.18;;;5.72;;
10947;SDS011;5526;42.070;24.752;2022-07-10T09:29:28;5.80;;;5.40;;
10947;SDS011;5526;42.070;24.752;2022-07-10T09:31:57;5.85;;;5.53;;
10947;SDS011;5526;42.070;24.752;2022-07-10T09:34:35;6.00;;;5.60;;
10947;SDS011;5526;42.070;24.752;2022-07-10T09:37:17;5.68;;;5.22;;
10947;SDS011;5526;42.070;24.752;2022-07-10T09:39:51;5.28;;;4.97;;
10947;SDS011;5526;42.070;24.752;2022-07-10T09:42:25;5.63;;;5.32;;
10947;SDS011;5526;42.070;24.752;2022-07-10T09:45:16;6.13;;;5.55;;
10947;SDS011;5526;42.070;24.752;2022-07-10T09:47:46;5.75;;;5.32;;
10947;SDS011;5526;42.070;24.752;2022-07-10T09:50:22;5.70;;;5.30;;
10947;SDS011;5526;42.070;24.752;2022-07-10T09:52:51;5.97;;;5.57;;
10947;SDS011;5526;42.070;24.752;2022-07-10T09:55:20;5.82;;;5.43;;
10947;SDS011;5526;42.070;24.752;2022-07-10T09:57:54;5.45;;;5.15;;
10947;SDS011;5526;42.070;24.752;2022-07-10T10:00:23;6.07;;;5.78;;
10947;SDS011;5526;42.070;24.752;2022-07-10T10:02:56;5.50;;;5.20;;
10947;SDS011;5526;42.070;24.752;2022-07-10T10:05:35;6.03;;;5.72;;
10947;SDS011;5526;42.070;24.752;2022-07-10T10:08:09;6.30;;;5.90;;
10947;SDS011;5526;42.070;24.752;2022-07-10T10:10:40;5.93;;;5.50;;
10947;SDS011;5526;42.070;24.752;2022-07-10T10:13:11;6.13;;;5.72;;
10947;SDS011;5526;42.070;24.752;2022-07-10T10:15:38;6.15;;;5.75;;
10947;SDS011;5526;42.070;24.752;2022-07-10T10:18:07;6.78;;;6.18;;
10947;SDS011;5526;42.070;24.752;2022-07-10T10:20:37;6.82;;;6.22;;
10947;SDS011;5526;42.070;24.752;2022-07-10T10:23:03;6.03;;;5.60;;
10947;SDS011;5526;42.070;24.752;2022-07-10T10:25:31;6.30;;;5.88;;
10947;SDS011;5526;42.070;24.752;2022-07-10T10:28:00;6.68;;;6.07;;
10947;SDS011;5526;42.070;24.752;2022-07-10T10:30:29;6.22;;;5.82;;
10947;SDS011;5526;42.070;24.752;2022-07-10T10:32:56;6.65;;;6.25;;
10947;SDS011;5526;42.070;24.752;2022-07-10T10:35:45;6.35;;;5.95;;
10947;SDS011;5526;42.070;24.752;2022-07-10T10:38:13;7.00;;;6.60;;
10947;SDS011;5526;42.070;24.752;2022-07-10T10:40:40;6.60;;;6.20;;
10947;SDS011;5526;42.070;24.752;2022-07-10T10:43:17;6.47;;;5.95;;
10947;SDS011;5526;42.070;24.752;2022-07-10T10:45:45;6.38;;;5.97;;
10947;SDS011;5526;42.070;24.752;2022-07-10T10:48:13;7.00;;;6.50;;
10947;SDS011;5526;42.070;24.752;2022-07-10T10:50:41;6.07;;;5.57;;
10947;SDS011;5526;42.070;24.752;2022-07-10T10:53:13;6.28;;;5.88;;
10947;SDS011;5526;42.070;24.752;2022-07-10T10:55:41;5.15;;;4.85;;
10947;SDS011;5526;42.070;24.752;2022-07-10T10:58:46;5.70;;;5.30;;
10947;SDS011;5526;42.070;24.752;2022-07-10T11:01:23;5.57;;;5.18;;
10947;SDS011;5526;42.070;24.752;2022-07-10T11:06:40;6.10;;;5.63;;
10947;SDS011;5526;42.070;24.752;2022-07-10T11:09:22;5.70;;;5.30;;
10947;SDS011;5526;42.070;24.752;2022-07-10T11:12:02;5.40;;;4.85;;
10947;SDS011;5526;42.070;24.752;2022-07-10T11:14:31;5.38;;;5.07;;
10947;SDS011;5526;42.070;24.752;2022-07-10T11:16:59;5.45;;;5.15;;
10947;SDS011;5526;42.070;24.752;2022-07-10T11:19:27;5.13;;;4.82;;
10947;SDS011;5526;42.070;24.752;2022-07-10T11:22:04;5.05;;;4.75;;
10947;SDS011;5526;42.070;24.752;2022-07-10T11:24:42;5.15;;;4.80;;
10947;SDS011;5526;42.070;24.752;2022-07-10T11:27:26;4.57;;;4.38;;
10947;SDS011;5526;42.070;24.752;2022-07-10T11:30:16;5.00;;;4.70;;
10947;SDS011;5526;42.070;24.752;2022-07-10T11:32:43;5.28;;;4.97;;
10947;SDS011;5526;42.070;24.752;2022-07-10T11:35:11;4.20;;;4.00;;
10947;SDS011;5526;42.070;24.752;2022-07-10T11:37:48;5.07;;;4.70;;
10947;SDS011;5526;42.070;24.752;2022-07-10T11:40:18;5.38;;;4.97;;
10947;SDS011;5526;42.070;24.752;2022-07-10T11:42:50;5.07;;;4.78;;
10947;SDS011;5526;42.070;24.752;2022-07-10T11:45:25;4.90;;;4.70;;
10947;SDS011;5526;42.070;24.752;2022-07-10T11:47:54;4.80;;;4.55;;
10947;SDS011;5526;42.070;24.752;2022-07-10T11:50:21;5.18;;;4.88;;
10947;SDS011;5526;42.070;24.752;2022-07-10T11:52:48;4.95;;;4.65;;
10947;SDS011;5526;42.070;24.752;2022-07-10T11:55:18;4.63;;;4.22;;
10947;SDS011;5526;42.070;24.752;2022-07-10T11:57:46;4.32;;;4.13;;
10947;SDS011;5526;42.070;24.752;2022-07-10T12:00:21;4.22;;;4.03;;
10947;SDS011;5526;42.070;24.752;2022-07-10T12:02:49;4.25;;;4.05;;
10947;SDS011;5526;42.070;24.752;2022-07-10T12:05:32;4.22;;;4.03;;
10947;SDS011;5526;42.070;24.752;2022-07-10T12:08:00;4.57;;;4.30;;
10947;SDS011;5526;42.070;24.752;2022-07-10T12:10:30;4.22;;;4.03;;
10947;SDS011;5526;42.070;24.752;2022-07-10T12:13:04;4.30;;;4.00;;
10947;SDS011;5526;42.070;24.752;2022-07-10T12:15:33;4.13;;;3.92;;
10947;SDS011;5526;42.070;24.752;2022-07-10T12:18:02;4.38;;;4.00;;
10947;SDS011;5526;42.070;24.752;2022-07-10T12:20:30;4.05;;;3.85;;
10947;SDS011;5526;42.070;24.752;2022-07-10T12:22:57;4.15;;;3.85;;
10947;SDS011;5526;42.070;24.752;2022-07-10T12:25:25;3.83;;;3.63;;
10947;SDS011;5526;42.070;24.752;2022-07-10T12:27:56;4.22;;;4.03;;
10947;SDS011;5526;42.070;24.752;2022-07-10T12:30:35;4.18;;;3.97;;
10947;SDS011;5526;42.070;24.752;2022-07-10T12:33:09;4.40;;;4.20;;
10947;SDS011;5526;42.070;24.752;2022-07-10T12:35:48;4.03;;;3.83;;
10947;SDS011;5526;42.070;24.752;2022-07-10T12:38:17;4.57;;;4.30;;
10947;SDS011;5526;42.070;24.752;2022-07-10T12:40:45;4.55;;;4.25;;
10947;SDS011;5526;42.070;24.752;2022-07-10T12:43:14;4.13;;;3.92;;
10947;SDS011;5526;42.070;24.752;2022-07-10T12:48:41;4.47;;;4.18;;
10947;SDS011;5526;42.070;24.752;2022-07-10T12:51:19;4.32;;;4.13;;
10947;SDS011;5526;42.070;24.752;2022-07-10T12:53:49;4.55;;;4.25;;
10947;SDS011;5526;42.070;24.752;2022-07-10T12:56:26;4.40;;;4.20;;
10947;SDS011;5526;42.070;24.752;2022-07-10T12:58:59;4.32;;;4.05;;
10947;SDS011;5526;42.070;24.752;2022-07-10T13:01:27;4.32;;;4.13;;
10947;SDS011;5526;42.070;24.752;2022-07-10T13:03:59;4.38;;;4.07;;
10947;SDS011;5526;42.070;24.752;2022-07-10T13:06:27;4.45;;;4.25;;
10947;SDS011;5526;42.070;24.752;2022-07-10T13:08:56;4.50;;;4.30;;
10947;SDS011;5526;42.070;24.752;2022-07-10T13:11:23;4.45;;;4.25;;
10947;SDS011;5526;42.070;24.752;2022-07-10T13:13:50;4.32;;;4.05;;
10947;SDS011;5526;42.070;24.752;2022-07-10T13:16:19;4.40;;;4.13;;
10947;SDS011;5526;42.070;24.752;2022-07-10T13:18:47;4.38;;;4.18;;
10947;SDS011;5526;42.070;24.752;2022-07-10T13:21:14;3.90;;;3.80;;
10947;SDS011;5526;42.070;24.752;2022-07-10T13:23:41;4.18;;;3.97;;
10947;SDS011;5526;42.070;24.752;2022-07-10T13:26:09;3.92;;;3.72;;
10947;SDS011;5526;42.070;24.752;2022-07-10T13:28:36;4.40;;;4.20;;
10947;SDS011;5526;42.070;24.752;2022-07-10T13:31:03;4.38;;;4.18;;
10947;SDS011;5526;42.070;24.752;2022-07-10T13:33:33;4.38;;;4.07;;
10947;SDS011;5526;42.070;24.752;2022-07-10T13:36:01;4.38;;;4.18;;
10947;SDS011;5526;42.070;24.752;2022-07-10T13:38:28;4.57;;;4.18;;
10947;SDS011;5526;42.070;24.752;2022-07-10T13:40:58;4.53;;;4.20;;
10947;SDS011;5526;42.070;24.752;2022-07-10T13:43:25;4.28;;;3.97;;
10947;SDS011;5526;42.070;24.752;2022-07-10T13:45:56;4.10;;;3.90;;
10947;SDS011;5526;42.070;24.752;2022-07-10T13:48:23;4.68;;;4.43;;
10947;SDS011;5526;42.070;24.752;2022-07-10T13:50:52;3.97;;;3.78;;
10947;SDS011;5526;42.070;24.752;2022-07-10T13:53:20;7.43;;;4.32;;
10947;SDS011;5526;42.070;24.752;2022-07-10T13:55:47;4.30;;;4.10;;
10947;SDS011;5526;42.070;24.752;2022-07-10T13:58:14;4.30;;;4.10;;
10947;SDS011;5526;42.070;24.752;2022-07-10T14:00:42;4.55;;;4.35;;
10947;SDS011;5526;42.070;24.752;2022-07-10T14:03:09;4.32;;;4.13;;
10947;SDS011;5526;42.070;24.752;2022-07-10T14:05:37;4.53;;;4.22;;
10947;SDS011;5526;42.070;24.752;2022-07-10T14:08:05;7.15;;;4.55;;
10947;SDS011;5526;42.070;24.752;2022-07-10T14:10:32;4.82;;;4.32;;
10947;SDS011;5526;42.070;24.752;2022-07-10T14:13:00;4.28;;;4.07;;
10947;SDS011;5526;42.070;24.752;2022-07-10T14:15:27;4.13;;;3.92;;
10947;SDS011;5526;42.070;24.752;2022-07-10T14:17:55;4.65;;;4.20;;
10947;SDS011;5526;42.070;24.752;2022-07-10T14:20:22;4.47;;;4.18;;
10947;SDS011;5526;42.070;24.752;2022-07-10T14:22:49;4.35;;;4.05;;
10947;SDS011;5526;42.070;24.752;2022-07-10T14:25:18;4.00;;;3.80;;
10947;SDS011;5526;42.070;24.752;2022-07-10T14:27:51;4.10;;;3.90;;
10947;SDS011;5526;42.070;24.752;2022-07-10T14:30:18;4.22;;;4.03;;
10947;SDS011;5526;42.070;24.752;2022-07-10T14:32:45;4.30;;;4.10;;
10947;SDS011;5526;42.070;24.752;2022-07-10T14:35:12;4.00;;;3.80;;
10947;SDS011;5526;42.070;24.752;2022-07-10T14:37:39;4.65;;;4.13;;
10947;SDS011;5526;42.070;24.752;2022-07-10T14:40:07;4.53;;;4.22;;
10947;SDS011;5526;42.070;24.752;2022-07-10T14:42:36;4.18;;;3.88;;
10947;SDS011;5526;42.070;24.752;2022-07-10T14:45:04;4.35;;;3.95;;
10947;SDS011;5526;42.070;24.752;2022-07-10T14:47:32;3.97;;;3.78;;
10947;SDS011;5526;42.070;24.752;2022-07-10T14:50:00;3.90;;;3.60;;
10947;SDS011;5526;42.070;24.752;2022-07-10T14:52:27;4.07;;;3.88;;
10947;SDS011;5526;42.070;24.752;2022-07-10T14:54:56;3.92;;;3.60;;
10947;SDS011;5526;42.070;24.752;2022-07-10T14:57:23;4.15;;;3.95;;
10947;SDS011;5526;42.070;24.752;2022-07-10T14:59:52;3.42;;;3.13;;
10947;SDS011;5526;42.070;24.752;2022-07-10T15:02:19;4.07;;;3.78;;
10947;SDS011;5526;42.070;24.752;2022-07-10T15:04:46;3.85;;;3.65;;